Time,TemperatureF,DewpointF,PressureIn,WindDirection,WindDirectionDegrees,WindSpeedMPH,WindSpeedGustMPH,Humidity,HourlyPrecipIn,Conditions,Clouds,dailyrainin,SolarRadiationWatts/m^2,SoftwareType,DateUTC
2013-02-04 00:00:00,9.7,5.8,30.02,NNE,14,2.0,3.0,84,0.00,,---,0.00,0.00,VWS V14.01,2013-02-04 06:00:00,
2013-02-04 00:10:00,9.7,5.8,30.02,NNE,14,1.0,3.0,84,0.00,,---,0.00,0.00,VWS V14.01,2013-02-04 06:10:00,
2013-02-04 00:15:00,9.6,5.8,30.02,North,10,4.0,5.0,84,0.00,,---,0.00,0.00,VWS V14.01,2013-02-04 06:15:00,
2013-02-04 00:20:00,9.7,5.8,30.02,North,10,1.0,5.0,84,0.00,,---,0.00,0.00,VWS V14.01,2013-02-04 06:20:00,
2013-02-04 00:25:00,9.6,5.8,30.02,North,11,0.0,3.0,84,0.00,,---,0.00,0.00,VWS V14.01,2013-02-04 06:25:00,
2013-02-04 00:30:00,9.6,5.8,30.02,North,11,0.0,3.0,84,0.00,,---,0.00,0.00,VWS V14.01,2013-02-04 06:30:00,
2013-02-04 00:40:00,9.7,5.8,30.02,North,11,2.0,3.0,84,0.00,,---,0.00,0.00,VWS V14.01,2013-02-04 06:40:00,
2013-02-04 00:45:00,9.6,5.8,30.02,North,11,2.0,4.0,84,0.00,,---,0.00,0.00,VWS V14.01,2013-02-04 06:45:00,
2013-02-04 00:55:00,9.6,6.0,30.01,North,11,0.0,4.0,85,0.00,,---,0.00,0.00,VWS V14.01,2013-02-04 06:55:00,
2013-02-04 01:00:00,9.6,6.0,30.01,North,11,0.0,3.0,85,0.00,,---,0.00,0.00,VWS V14.01,2013-02-04 07:00:00,
2013-02-04 01:05:00,9.6,6.0,30.02,North,11,0.0,3.0,85,0.00,,---,0.00,0.00,VWS V14.01,2013-02-04 07:05:00,
2013-02-04 01:10:00,9.6,6.0,30.02,North,11,3.0,3.0,85,0.00,,---,0.00,0.00,VWS V14.01,2013-02-04 07:10:00,
2013-02-04 01:15:00,9.6,6.0,30.02,North,11,1.0,3.0,85,0.00,,---,0.00,0.00,VWS V14.01,2013-02-04 07:15:00,
2013-02-04 01:25:00,9.6,6.0,30.02,North,11,0.0,3.0,85,0.00,,---,0.00,0.00,VWS V14.01,2013-02-04 07:25:00,
2013-02-04 01:30:00,9.6,6.0,30.02,North,10,2.0,4.0,85,0.00,,---,0.00,0.00,VWS V14.01,2013-02-04 07:30:00,
2013-02-04 01:35:00,9.6,6.0,30.02,North,10,1.0,4.0,85,0.00,,---,0.00,0.00,VWS V14.01,2013-02-04 07:35:00,
2013-02-04 01:45:00,9.5,5.9,30.02,North,11,4.0,4.0,85,0.00,,---,0.00,0.00,VWS V14.01,2013-02-04 07:45:00,
2013-02-04 01:50:00,9.5,5.9,30.03,North,11,3.0,4.0,85,0.00,,---,0.00,0.00,VWS V14.01,2013-02-04 07:50:00,
2013-02-04 01:55:00,9.4,5.8,30.03,NNE,12,1.0,3.0,85,0.00,,---,0.00,0.00,VWS V14.01,2013-02-04 07:55:00,
2013-02-04 02:05:00,9.2,5.4,30.03,NNE,12,1.0,2.0,84,0.00,,---,0.00,0.00,VWS V14.01,2013-02-04 08:05:00,
2013-02-04 02:10:00,9.1,5.3,30.03,NNE,12,2.0,3.0,84,0.00,,---,0.00,0.00,VWS V14.01,2013-02-04 08:10:00,
2013-02-04 02:15:00,8.9,5.1,30.03,NNE,12,0.0,2.0,84,0.00,,---,0.00,0.00,VWS V14.01,2013-02-04 08:15:00,
2013-02-04 02:20:00,8.7,4.9,30.03,NNE,12,0.0,0.0,84,0.00,,---,0.00,0.00,VWS V14.01,2013-02-04 08:20:00,
2013-02-04 02:30:00,8.2,4.4,30.03,NNE,12,1.0,2.0,84,0.00,,---,0.00,0.00,VWS V14.01,2013-02-04 08:30:00,
2013-02-04 02:35:00,7.9,4.1,30.04,NNE,12,0.0,1.0,84,0.00,,---,0.00,0.00,VWS V14.01,2013-02-04 08:35:00,
2013-02-04 02:45:00,7.5,3.7,30.03,North,11,0.0,1.0,84,0.00,,---,0.00,0.00,VWS V14.01,2013-02-04 08:45:00,
2013-02-04 02:50:00,7.4,3.6,30.03,NNE,12,0.0,0.0,84,0.00,,---,0.00,0.00,VWS V14.01,2013-02-04 08:50:00,
2013-02-04 02:55:00,7.2,3.4,30.03,NNE,12,0.0,0.0,84,0.00,,---,0.00,0.00,VWS V14.01,2013-02-04 08:55:00,
2013-02-04 03:05:00,6.8,3.0,30.04,NNE,12,0.0,0.0,84,0.00,,---,0.00,0.00,VWS V14.01,2013-02-04 09:05:00,
2013-02-04 03:15:00,6.4,2.9,30.04,NNE,12,0.0,0.0,85,0.00,,---,0.00,0.00,VWS V14.01,2013-02-04 09:15:00,
2013-02-04 03:25:00,5.9,2.4,30.03,NNE,12,0.0,0.0,85,0.00,,---,0.00,0.00,VWS V14.01,2013-02-04 09:25:00,
2013-02-04 03:30:00,5.6,2.1,30.04,NNE,12,0.0,0.0,85,0.00,,---,0.00,0.00,VWS V14.01,2013-02-04 09:30:00,
2013-02-04 03:35:00,5.4,1.9,30.05,North,11,0.0,0.0,85,0.00,,---,0.00,0.00,VWS V14.01,2013-02-04 09:35:00,
2013-02-04 03:40:00,5.1,1.6,30.05,North,11,1.0,1.0,85,0.00,,---,0.00,0.00,VWS V14.01,2013-02-04 09:40:00,
2013-02-04 03:50:00,4.7,1.2,30.05,NNE,12,0.0,0.0,85,0.00,,---,0.00,0.00,VWS V14.01,2013-02-04 09:50:00,
2013-02-04 03:55:00,4.5,1.0,30.05,NNE,12,0.0,0.0,85,0.00,,---,0.00,0.00,VWS V14.01,2013-02-04 09:55:00,
2013-02-04 04:00:00,4.2,0.7,30.05,North,11,0.0,0.0,85,0.00,,---,0.00,0.00,VWS V14.01,2013-02-04 10:00:00,
2013-02-04 04:05:00,4.1,0.6,30.05,NNE,12,0.0,0.0,85,0.00,,---,0.00,0.00,VWS V14.01,2013-02-04 10:05:00,
2013-02-04 04:15:00,4.2,0.9,30.05,North,11,0.0,2.0,86,0.00,,---,0.00,0.00,VWS V14.01,2013-02-04 10:15:00,
2013-02-04 04:20:00,4.3,1.0,30.06,NNE,12,0.0,0.0,86,0.00,,---,0.00,0.00,VWS V14.01,2013-02-04 10:20:00,
2013-02-04 04:25:00,4.5,1.2,30.06,NNE,12,0.0,3.0,86,0.00,,---,0.00,0.00,VWS V14.01,2013-02-04 10:25:00,
2013-02-04 04:35:00,5.1,1.8,30.05,North,360,1.0,3.0,86,0.00,,---,0.00,0.00,VWS V14.01,2013-02-04 10:35:00,
2013-02-04 04:40:00,5.3,1.8,30.05,North,5,2.0,3.0,85,0.00,,---,0.00,0.00,VWS V14.01,2013-02-04 10:40:00,
2013-02-04 04:45:00,5.5,2.0,30.05,North,5,2.0,4.0,85,0.00,,---,0.00,0.00,VWS V14.01,2013-02-04 10:45:00,
2013-02-04 04:55:00,5.8,1.8,30.05,North,360,2.0,5.0,83,0.00,,---,0.00,0.00,VWS V14.01,2013-02-04 10:55:00,
2013-02-04 05:00:00,6.0,1.7,30.05,North,5,3.0,4.0,82,0.00,,---,0.00,0.00,VWS V14.01,2013-02-04 11:00:00,
2013-02-04 05:05:00,6.1,1.5,30.05,North,355,2.0,3.0,81,0.00,,---,0.00,0.00,VWS V14.01,2013-02-04 11:05:00,
2013-02-04 05:10:00,6.2,1.4,30.06,North,360,2.0,4.0,80,0.00,,---,0.00,0.00,VWS V14.01,2013-02-04 11:10:00,
2013-02-04 05:20:00,6.3,0.9,30.05,North,5,4.0,5.0,78,0.00,,---,0.00,0.00,VWS V14.01,2013-02-04 11:20:00,
2013-02-04 05:25:00,6.3,0.6,30.06,NNE,13,7.0,7.0,77,0.00,,---,0.00,0.00,VWS V14.01,2013-02-04 11:25:00,
2013-02-04 05:30:00,6.3,0.4,30.06,North,355,1.0,7.0,76,0.00,,---,0.00,0.00,VWS V14.01,2013-02-04 11:30:00,
2013-02-04 05:40:00,6.3,0.1,30.06,North,360,2.0,4.0,75,0.00,,---,0.00,0.00,VWS V14.01,2013-02-04 11:40:00,
2013-02-04 05:50:00,6.1,-0.4,30.07,North,360,2.0,3.0,74,0.00,,---,0.00,0.00,VWS V14.01,2013-02-04 11:50:00,
2013-02-04 06:00:00,5.9,-0.9,30.08,North,360,0.0,5.0,73,0.00,,---,0.00,0.00,VWS V14.01,2013-02-04 12:00:00,
2013-02-04 06:05:00,5.8,-1.0,30.08,North,360,0.0,2.0,73,0.00,,---,0.00,0.00,VWS V14.01,2013-02-04 12:05:00,
2013-02-04 06:10:00,5.5,-1.3,30.08,North,360,1.0,2.0,73,0.00,,---,0.00,0.00,VWS V14.01,2013-02-04 12:10:00,
2013-02-04 06:20:00,5.1,-1.6,30.08,North,360,0.0,2.0,73,0.00,,---,0.00,0.00,VWS V14.01,2013-02-04 12:20:00,
2013-02-04 06:25:00,4.9,-1.8,30.08,North,360,0.0,3.0,73,0.00,,---,0.00,0.00,VWS V14.01,2013-02-04 12:25:00,
2013-02-04 06:30:00,4.7,-2.0,30.08,North,360,0.0,2.0,73,0.00,,---,0.00,0.00,VWS V14.01,2013-02-04 12:30:00,
2013-02-04 06:35:00,4.6,-2.1,30.08,North,360,1.0,3.0,73,0.00,,---,0.00,0.00,VWS V14.01,2013-02-04 12:35:00,
2013-02-04 06:40:00,4.4,-2.3,30.08,North,360,1.0,3.0,73,0.00,,---,0.00,0.00,VWS V14.01,2013-02-04 12:40:00,
2013-02-04 06:50:00,4.1,-2.6,30.09,North,360,2.0,3.0,73,0.00,,---,0.00,0.00,VWS V14.01,2013-02-04 12:50:00,
2013-02-04 06:55:00,4.0,-2.7,30.10,North,355,1.0,5.0,73,0.00,,---,0.00,0.00,VWS V14.01,2013-02-04 12:55:00,
2013-02-04 07:00:00,4.0,-2.7,30.10,North,355,0.0,3.0,73,0.00,,---,0.00,0.00,VWS V14.01,2013-02-04 13:00:00,
2013-02-04 07:10:00,3.7,-3.0,30.09,North,355,0.0,2.0,73,0.00,,---,0.00,0.00,VWS V14.01,2013-02-04 13:10:00,
2013-02-04 07:15:00,3.4,-3.3,30.09,North,355,2.0,2.0,73,0.00,,---,0.00,0.00,VWS V14.01,2013-02-04 13:15:00,
2013-02-04 07:20:00,3.2,-3.5,30.09,North,355,1.0,2.0,73,0.00,,---,0.00,0.00,VWS V14.01,2013-02-04 13:20:00,
2013-02-04 07:25:00,2.9,-3.8,30.09,North,355,1.0,3.0,73,0.00,,---,0.00,0.00,VWS V14.01,2013-02-04 13:25:00,
2013-02-04 07:30:00,2.8,-3.9,30.09,North,355,0.0,1.0,73,0.00,,---,0.00,0.00,VWS V14.01,2013-02-04 13:30:00,
2013-02-04 07:35:00,2.5,-4.2,30.09,North,355,1.0,2.0,73,0.00,,---,0.00,5.00,VWS V14.01,2013-02-04 13:35:00,
2013-02-04 07:40:00,2.3,-4.1,30.09,North,5,3.0,6.0,74,0.00,,---,0.00,7.00,VWS V14.01,2013-02-04 13:40:00,
2013-02-04 07:50:00,2.0,-4.4,30.09,North,5,0.0,2.0,74,0.00,,---,0.00,11.00,VWS V14.01,2013-02-04 13:50:00,
2013-02-04 07:55:00,1.9,-4.5,30.09,North,360,0.0,3.0,74,0.00,,---,0.00,18.00,VWS V14.01,2013-02-04 13:55:00,
2013-02-04 08:00:00,2.0,-4.4,30.09,North,360,1.0,4.0,74,0.00,,---,0.00,56.00,VWS V14.01,2013-02-04 14:00:00,
2013-02-04 08:05:00,2.2,-4.2,30.09,North,5,0.0,3.0,74,0.00,,---,0.00,88.00,VWS V14.01,2013-02-04 14:05:00,
2013-02-04 08:10:00,2.6,-3.8,30.09,North,5,0.0,4.0,74,0.00,,---,0.00,98.00,VWS V14.01,2013-02-04 14:10:00,
2013-02-04 08:15:00,2.9,-3.8,30.10,North,5,0.0,3.0,73,0.00,,---,0.00,109.00,VWS V14.01,2013-02-04 14:15:00,
2013-02-04 08:20:00,3.3,-3.7,30.10,North,360,2.0,3.0,72,0.00,,---,0.00,125.00,VWS V14.01,2013-02-04 14:20:00,
2013-02-04 08:25:00,3.5,-3.5,30.09,North,5,3.0,4.0,72,0.00,,---,0.00,139.00,VWS V14.01,2013-02-04 14:25:00,
2013-02-04 08:35:00,4.1,-3.2,30.10,North,360,0.0,3.0,71,0.00,,---,0.00,158.00,VWS V14.01,2013-02-04 14:35:00,
2013-02-04 08:45:00,4.1,-3.5,30.10,North,5,0.0,2.0,70,0.00,,---,0.00,174.00,VWS V14.01,2013-02-04 14:45:00,
2013-02-04 08:50:00,4.4,-3.2,30.10,North,5,1.0,4.0,70,0.00,,---,0.00,192.00,VWS V14.01,2013-02-04 14:50:00,
2013-02-04 08:55:00,4.8,-2.8,30.11,North,5,0.0,5.0,70,0.00,,---,0.00,123.00,VWS V14.01,2013-02-04 14:55:00,
2013-02-04 09:05:00,4.9,-3.0,30.10,North,360,1.0,4.0,69,0.00,,---,0.00,174.00,VWS V14.01,2013-02-04 15:05:00,
2013-02-04 09:10:00,5.0,-2.9,30.10,North,360,1.0,5.0,69,0.00,,---,0.00,253.00,VWS V14.01,2013-02-04 15:10:00,
2013-02-04 09:20:00,5.1,-3.1,30.11,North,355,5.0,5.0,68,0.00,,---,0.00,183.00,VWS V14.01,2013-02-04 15:20:00,
2013-02-04 09:25:00,5.1,-3.1,30.11,North,355,2.0,5.0,68,0.00,,---,0.00,149.00,VWS V14.01,2013-02-04 15:25:00,
2013-02-04 09:30:00,5.1,-2.8,30.10,North,355,1.0,4.0,69,0.00,,---,0.00,155.00,VWS V14.01,2013-02-04 15:30:00,
2013-02-04 09:35:00,5.2,-2.7,30.10,North,355,2.0,4.0,69,0.00,,---,0.00,158.00,VWS V14.01,2013-02-04 15:35:00,
2013-02-04 09:40:00,5.3,-2.6,30.10,North,355,0.0,4.0,69,0.00,,---,0.00,171.00,VWS V14.01,2013-02-04 15:40:00,
2013-02-04 09:45:00,5.6,-2.0,30.10,North,355,3.0,4.0,70,0.00,,---,0.00,181.00,VWS V14.01,2013-02-04 15:45:00,
2013-02-04 09:55:00,6.3,-1.7,30.10,North,355,2.0,2.0,69,0.00,,---,0.00,179.00,VWS V14.01,2013-02-04 15:55:00,
2013-02-04 10:00:00,6.5,-1.5,30.11,North,355,2.0,3.0,69,0.00,,---,0.00,176.00,VWS V14.01,2013-02-04 16:00:00,
2013-02-04 10:05:00,6.5,-1.5,30.11,North,355,2.0,3.0,69,0.00,,---,0.00,172.00,VWS V14.01,2013-02-04 16:05:00,
2013-02-04 10:15:00,7.0,-0.7,30.11,North,355,0.0,2.0,70,0.00,,---,0.00,172.00,VWS V14.01,2013-02-04 16:15:00,
2013-02-04 10:20:00,7.6,-0.4,30.10,North,355,2.0,3.0,69,0.00,,---,0.00,176.00,VWS V14.01,2013-02-04 16:20:00,
2013-02-04 10:30:00,7.9,-0.1,30.11,North,355,0.0,3.0,69,0.00,,---,0.00,176.00,VWS V14.01,2013-02-04 16:30:00,
2013-02-04 10:35:00,8.4,0.3,30.11,North,355,0.0,2.0,69,0.00,,---,0.00,174.00,VWS V14.01,2013-02-04 16:35:00,
2013-02-04 10:45:00,8.8,0.7,30.11,North,355,1.0,2.0,69,0.00,,---,0.00,174.00,VWS V14.01,2013-02-04 16:45:00,
2013-02-04 10:50:00,8.9,0.5,30.11,North,355,1.0,2.0,68,0.00,,---,0.00,179.00,VWS V14.01,2013-02-04 16:50:00,
2013-02-04 10:55:00,8.7,0.3,30.11,North,355,2.0,2.0,68,0.00,,---,0.00,181.00,VWS V14.01,2013-02-04 16:55:00,
2013-02-04 11:05:00,9.2,0.5,30.10,North,355,0.0,4.0,67,0.00,,---,0.00,197.00,VWS V14.01,2013-02-04 17:05:00,
2013-02-04 11:10:00,9.4,0.7,30.09,North,355,1.0,1.0,67,0.00,,---,0.00,213.00,VWS V14.01,2013-02-04 17:10:00,
2013-02-04 11:15:00,9.6,0.9,30.09,North,355,2.0,2.0,67,0.00,,---,0.00,232.00,VWS V14.01,2013-02-04 17:15:00,
2013-02-04 11:20:00,9.7,1.0,30.08,North,355,2.0,3.0,67,0.00,,---,0.00,239.00,VWS V14.01,2013-02-04 17:20:00,
2013-02-04 11:25:00,9.9,1.5,30.08,NNW,345,3.0,3.0,68,0.00,,---,0.00,234.00,VWS V14.01,2013-02-04 17:25:00,
2013-02-04 11:30:00,10.3,1.5,30.08,West,280,0.0,4.0,67,0.00,,---,0.00,241.00,VWS V14.01,2013-02-04 17:30:00,
2013-02-04 11:40:00,10.9,2.1,30.07,West,281,1.0,2.0,67,0.00,,---,0.00,274.00,VWS V14.01,2013-02-04 17:40:00,
2013-02-04 11:45:00,11.0,1.5,30.07,West,280,2.0,4.0,65,0.00,,---,0.00,269.00,VWS V14.01,2013-02-04 17:45:00,
2013-02-04 11:50:00,10.8,1.4,30.07,West,280,2.0,3.0,65,0.00,,---,0.00,274.00,VWS V14.01,2013-02-04 17:50:00,
2013-02-04 11:55:00,10.9,1.8,30.07,West,281,3.0,3.0,66,0.00,,---,0.00,281.00,VWS V14.01,2013-02-04 17:55:00,
2013-02-04 12:00:00,10.9,1.5,30.07,West,281,0.0,4.0,65,0.00,,---,0.00,255.00,VWS V14.01,2013-02-04 18:00:00,
2013-02-04 12:05:00,11.1,2.0,30.07,West,281,0.0,3.0,66,0.00,,---,0.00,257.00,VWS V14.01,2013-02-04 18:05:00,
2013-02-04 12:15:00,12.4,3.5,30.06,West,281,2.0,3.0,67,0.00,,---,0.00,248.00,VWS V14.01,2013-02-04 18:15:00,
2013-02-04 12:20:00,12.8,3.3,30.06,West,281,0.0,2.0,65,0.00,,---,0.00,281.00,VWS V14.01,2013-02-04 18:20:00,
2013-02-04 12:25:00,12.8,2.9,30.06,West,281,2.0,3.0,64,0.00,,---,0.00,292.00,VWS V14.01,2013-02-04 18:25:00,
2013-02-04 12:30:00,12.5,2.3,30.06,WNW,288,3.0,3.0,63,0.00,,---,0.00,311.00,VWS V14.01,2013-02-04 18:30:00,
2013-02-04 12:35:00,12.4,2.2,30.05,West,280,3.0,4.0,63,0.00,,---,0.00,309.00,VWS V14.01,2013-02-04 18:35:00,
2013-02-04 12:45:00,11.8,1.6,30.05,West,261,2.0,4.0,63,0.00,,---,0.00,302.00,VWS V14.01,2013-02-04 18:45:00,
2013-02-04 12:50:00,11.3,0.8,30.05,WSW,247,0.0,6.0,62,0.00,,---,0.00,311.00,VWS V14.01,2013-02-04 18:50:00,
2013-02-04 12:55:00,11.5,1.7,30.05,WSW,246,1.0,4.0,64,0.00,,---,0.00,306.00,VWS V14.01,2013-02-04 18:55:00,
2013-02-04 13:00:00,10.9,0.8,30.05,SW,232,3.0,6.0,63,0.00,,---,0.00,299.00,VWS V14.01,2013-02-04 19:00:00,
2013-02-04 13:10:00,11.2,1.4,30.05,SW,221,2.0,7.0,64,0.00,,---,0.00,297.00,VWS V14.01,2013-02-04 19:10:00,
2013-02-04 13:15:00,11.6,2.1,30.04,SW,221,0.0,3.0,65,0.00,,---,0.00,295.00,VWS V14.01,2013-02-04 19:15:00,
2013-02-04 13:25:00,11.7,1.5,30.04,SW,223,7.0,7.0,63,0.00,,---,0.00,283.00,VWS V14.01,2013-02-04 19:25:00,
2013-02-04 13:30:00,11.0,0.9,30.04,SW,220,0.0,7.0,63,0.00,,---,0.00,274.00,VWS V14.01,2013-02-04 19:30:00,
2013-02-04 13:35:00,11.5,2.0,30.04,SW,216,7.0,7.0,65,0.00,,---,0.00,272.00,VWS V14.01,2013-02-04 19:35:00,
2013-02-04 13:40:00,11.4,1.6,30.04,SW,217,1.0,7.0,64,0.00,,---,0.00,269.00,VWS V14.01,2013-02-04 19:40:00,
2013-02-04 13:45:00,11.2,1.4,30.04,SW,223,5.0,9.0,64,0.00,,---,0.00,265.00,VWS V14.01,2013-02-04 19:45:00,
2013-02-04 13:50:00,11.2,1.4,30.03,SW,229,6.0,7.0,64,0.00,,---,0.00,264.00,VWS V14.01,2013-02-04 19:50:00,
2013-02-04 13:55:00,11.4,1.6,30.03,SW,218,1.0,9.0,64,0.00,,---,0.00,264.00,VWS V14.01,2013-02-04 19:55:00,
2013-02-04 14:05:00,11.5,1.7,30.02,SW,235,4.0,11.0,64,0.00,,---,0.00,260.00,VWS V14.01,2013-02-04 20:05:00,
2013-02-04 14:10:00,11.8,2.3,30.02,SW,217,6.0,7.0,65,0.00,,---,0.00,258.00,VWS V14.01,2013-02-04 20:10:00,
2013-02-04 14:15:00,11.7,1.9,30.02,SW,222,2.0,7.0,64,0.00,,---,0.00,251.00,VWS V14.01,2013-02-04 20:15:00,
2013-02-04 14:25:00,12.3,2.8,30.01,SSW,213,2.0,7.0,65,0.00,,---,0.00,230.00,VWS V14.01,2013-02-04 20:25:00,
2013-02-04 14:35:00,13.0,3.1,30.01,SW,227,1.0,6.0,64,0.00,,---,0.00,221.00,VWS V14.01,2013-02-04 20:35:00,
2013-02-04 14:40:00,13.2,3.0,30.01,SW,233,3.0,6.0,63,0.00,,---,0.00,220.00,VWS V14.01,2013-02-04 20:40:00,
2013-02-04 14:45:00,13.2,3.0,30.01,West,259,0.0,4.0,63,0.00,,---,0.00,218.00,VWS V14.01,2013-02-04 20:45:00,
2013-02-04 14:50:00,13.7,3.8,30.00,WSW,257,1.0,4.0,64,0.00,,---,0.00,209.00,VWS V14.01,2013-02-04 20:50:00,
2013-02-04 15:00:00,14.5,4.2,30.01,WSW,257,1.0,3.0,63,0.00,,---,0.00,181.00,VWS V14.01,2013-02-04 21:00:00,
2013-02-04 15:05:00,14.6,4.0,30.01,WSW,257,0.0,4.0,62,0.00,,---,0.00,114.00,VWS V14.01,2013-02-04 21:05:00,
2013-02-04 15:10:00,14.5,3.5,30.01,WSW,257,0.0,2.0,61,0.00,,---,0.00,125.00,VWS V14.01,2013-02-04 21:10:00,
2013-02-04 15:15:00,14.4,3.1,30.01,WSW,257,3.0,3.0,60,0.00,,---,0.00,165.00,VWS V14.01,2013-02-04 21:15:00,
2013-02-04 15:20:00,14.3,3.3,30.01,WSW,258,1.0,3.0,61,0.00,,---,0.00,190.00,VWS V14.01,2013-02-04 21:20:00,
2013-02-04 15:25:00,14.3,3.3,30.01,WSW,257,1.0,2.0,61,0.00,,---,0.00,195.00,VWS V14.01,2013-02-04 21:25:00,
2013-02-04 15:35:00,14.8,3.8,30.00,WSW,258,0.0,2.0,61,0.00,,---,0.00,181.00,VWS V14.01,2013-02-04 21:35:00,
2013-02-04 15:45:00,15.0,3.3,29.99,WSW,258,0.0,3.0,59,0.00,,---,0.00,153.00,VWS V14.01,2013-02-04 21:45:00,
2013-02-04 15:50:00,14.9,3.2,29.99,WSW,257,0.0,0.0,59,0.00,,---,0.00,149.00,VWS V14.01,2013-02-04 21:50:00,
2013-02-04 15:55:00,14.9,3.5,29.99,WSW,258,2.0,3.0,60,0.00,,---,0.00,142.00,VWS V14.01,2013-02-04 21:55:00,
2013-02-04 16:05:00,14.6,3.6,29.99,WSW,257,0.0,2.0,61,0.00,,---,0.00,121.00,VWS V14.01,2013-02-04 22:05:00,
2013-02-04 16:10:00,14.6,4.0,29.98,WSW,258,0.0,1.0,62,0.00,,---,0.00,109.00,VWS V14.01,2013-02-04 22:10:00,
2013-02-04 16:20:00,14.7,4.1,29.98,WSW,258,0.0,1.0,62,0.00,,---,0.00,91.00,VWS V14.01,2013-02-04 22:20:00,
2013-02-04 16:25:00,14.7,3.7,29.98,WSW,257,0.0,0.0,61,0.00,,---,0.00,74.00,VWS V14.01,2013-02-04 22:25:00,
2013-02-04 16:30:00,14.6,3.6,29.98,WSW,257,0.0,0.0,61,0.00,,---,0.00,69.00,VWS V14.01,2013-02-04 22:30:00,
2013-02-04 16:40:00,14.6,4.0,29.98,WSW,257,0.0,0.0,62,0.00,,---,0.00,63.00,VWS V14.01,2013-02-04 22:40:00,
2013-02-04 16:45:00,14.6,4.0,29.98,WSW,258,0.0,0.0,62,0.00,,---,0.00,62.00,VWS V14.01,2013-02-04 22:45:00,
2013-02-04 16:55:00,14.3,3.3,29.98,WSW,258,0.0,0.0,61,0.00,,---,0.00,53.00,VWS V14.01,2013-02-04 22:55:00,
2013-02-04 17:00:00,14.2,3.2,29.97,WSW,257,0.0,0.0,61,0.00,,---,0.00,49.00,VWS V14.01,2013-02-04 23:00:00,
2013-02-04 17:05:00,14.1,3.5,29.98,WSW,258,0.0,0.0,62,0.00,,---,0.00,47.00,VWS V14.01,2013-02-04 23:05:00,
2013-02-04 17:15:00,13.7,2.8,29.98,WSW,258,0.0,2.0,61,0.00,,---,0.00,21.00,VWS V14.01,2013-02-04 23:15:00,
2013-02-04 17:20:00,13.6,3.0,29.97,WSW,258,0.0,0.0,62,0.00,,---,0.00,9.00,VWS V14.01,2013-02-04 23:20:00,
2013-02-04 17:30:00,13.3,2.7,29.97,WSW,258,0.0,0.0,62,0.00,,---,0.00,0.00,VWS V14.01,2013-02-04 23:30:00,
2013-02-04 17:40:00,12.8,2.6,29.97,WSW,257,2.0,2.0,63,0.00,,---,0.00,0.00,VWS V14.01,2013-02-04 23:40:00,
2013-02-04 17:45:00,12.6,2.4,29.97,WSW,258,2.0,3.0,63,0.00,,---,0.00,0.00,VWS V14.01,2013-02-04 23:45:00,
2013-02-04 17:50:00,12.4,2.6,29.97,WSW,258,0.0,3.0,64,0.00,,---,0.00,0.00,VWS V14.01,2013-02-04 23:50:00,
2013-02-04 17:55:00,12.3,2.5,29.97,WSW,258,1.0,3.0,64,0.00,,---,0.00,0.00,VWS V14.01,2013-02-04 23:55:00,
2013-02-04 18:00:00,12.2,2.7,29.97,WSW,258,2.0,4.0,65,0.00,,---,0.00,0.00,VWS V14.01,2013-02-05 00:00:00,
2013-02-04 18:10:00,12.0,2.5,29.96,WSW,257,3.0,5.0,65,0.00,,---,0.00,0.00,VWS V14.01,2013-02-05 00:10:00,
2013-02-04 18:15:00,12.0,2.5,29.96,WSW,245,5.0,5.0,65,0.00,,---,0.00,0.00,VWS V14.01,2013-02-05 00:15:00,
2013-02-04 18:20:00,11.9,2.4,29.95,SW,229,4.0,5.0,65,0.00,,---,0.00,0.00,VWS V14.01,2013-02-05 00:20:00,
2013-02-04 18:25:00,11.8,2.3,29.95,SW,225,5.0,5.0,65,0.00,,---,0.00,0.00,VWS V14.01,2013-02-05 00:25:00,
2013-02-04 18:35:00,12.0,2.2,29.95,SSW,213,5.0,9.0,64,0.00,,---,0.00,0.00,VWS V14.01,2013-02-05 00:35:00,
2013-02-04 18:40:00,12.1,2.3,29.94,SSW,213,1.0,10.0,64,0.00,,---,0.00,0.00,VWS V14.01,2013-02-05 00:40:00,
2013-02-04 18:45:00,12.1,2.3,29.94,SW,222,5.0,6.0,64,0.00,,---,0.00,0.00,VWS V14.01,2013-02-05 00:45:00,
2013-02-04 18:55:00,11.9,2.4,29.94,SW,222,0.0,2.0,65,0.00,,---,0.00,0.00,VWS V14.01,2013-02-05 00:55:00,
2013-02-04 19:05:00,11.8,2.3,29.94,SW,220,1.0,4.0,65,0.00,,---,0.00,0.00,VWS V14.01,2013-02-05 01:05:00,
2013-02-04 19:15:00,11.8,2.3,29.94,SW,220,2.0,5.0,65,0.00,,---,0.00,0.00,VWS V14.01,2013-02-05 01:15:00,
2013-02-04 19:25:00,11.7,1.9,29.93,SW,218,0.0,4.0,64,0.00,,---,0.00,0.00,VWS V14.01,2013-02-05 01:25:00,
2013-02-04 19:30:00,11.7,1.9,29.93,SW,219,2.0,5.0,64,0.00,,---,0.00,0.00,VWS V14.01,2013-02-05 01:30:00,
2013-02-04 19:35:00,11.7,1.9,29.93,SW,219,0.0,2.0,64,0.00,,---,0.00,0.00,VWS V14.01,2013-02-05 01:35:00,
2013-02-04 19:40:00,11.7,2.2,29.92,SW,219,1.0,4.0,65,0.00,,---,0.00,0.00,VWS V14.01,2013-02-05 01:40:00,
2013-02-04 19:50:00,11.7,2.2,29.91,SW,219,3.0,3.0,65,0.00,,---,0.00,0.00,VWS V14.01,2013-02-05 01:50:00,
2013-02-04 19:55:00,11.8,2.3,29.91,SW,215,0.0,3.0,65,0.00,,---,0.00,0.00,VWS V14.01,2013-02-05 01:55:00,
2013-02-04 20:00:00,11.8,2.3,29.91,SW,215,0.0,2.0,65,0.00,,---,0.00,0.00,VWS V14.01,2013-02-05 02:00:00,
2013-02-04 20:05:00,11.9,2.4,29.91,SW,214,2.0,4.0,65,0.00,,---,0.00,0.00,VWS V14.01,2013-02-05 02:05:00,
2013-02-04 20:10:00,12.0,2.5,29.91,SSW,213,0.0,2.0,65,0.00,,---,0.00,0.00,VWS V14.01,2013-02-05 02:10:00,
2013-02-04 20:20:00,12.3,3.1,29.91,SSW,195,1.0,4.0,66,0.00,,---,0.00,0.00,VWS V14.01,2013-02-05 02:20:00,
2013-02-04 20:25:00,12.5,3.3,29.91,SW,229,5.0,7.0,66,0.00,,---,0.00,0.00,VWS V14.01,2013-02-05 02:25:00,
2013-02-04 20:35:00,12.6,3.4,29.91,South,174,4.0,9.0,66,0.00,,---,0.00,0.00,VWS V14.01,2013-02-05 02:35:00,
2013-02-04 20:40:00,12.7,3.5,29.91,SW,218,5.0,7.0,66,0.00,,---,0.00,0.00,VWS V14.01,2013-02-05 02:40:00,
2013-02-04 20:45:00,12.7,3.5,29.91,South,188,2.0,7.0,66,0.00,,---,0.00,0.00,VWS V14.01,2013-02-05 02:45:00,
2013-02-04 20:50:00,12.7,3.8,29.91,SW,222,0.0,6.0,67,0.00,,---,0.00,0.00,VWS V14.01,2013-02-05 02:50:00,
2013-02-04 20:55:00,12.7,3.8,29.91,SSW,211,1.0,7.0,67,0.00,,---,0.00,0.00,VWS V14.01,2013-02-05 02:55:00,
2013-02-04 21:00:00,12.7,3.8,29.91,SW,222,8.0,8.0,67,0.00,,---,0.00,0.00,VWS V14.01,2013-02-05 03:00:00,
2013-02-04 21:05:00,12.6,3.7,29.91,SW,218,4.0,8.0,67,0.00,,---,0.00,0.00,VWS V14.01,2013-02-05 03:05:00,
2013-02-04 21:15:00,12.6,3.7,29.90,WSW,245,0.0,7.0,67,0.00,,---,0.00,0.00,VWS V14.01,2013-02-05 03:15:00,
2013-02-04 21:25:00,12.8,3.9,29.90,SW,219,4.0,11.0,67,0.00,,---,0.00,0.00,VWS V14.01,2013-02-05 03:25:00,
2013-02-04 21:30:00,12.8,3.9,29.90,SSW,205,3.0,10.0,67,0.00,,---,0.00,0.00,VWS V14.01,2013-02-05 03:30:00,
2013-02-04 21:35:00,12.8,4.2,29.90,South,169,4.0,10.0,68,0.00,,---,0.00,0.00,VWS V14.01,2013-02-05 03:35:00,
2013-02-04 21:40:00,12.8,4.2,29.89,SW,229,4.0,6.0,68,0.00,,---,0.00,0.00,VWS V14.01,2013-02-05 03:40:00,
2013-02-04 21:45:00,12.8,4.2,29.89,SSW,209,1.0,7.0,68,0.00,,---,0.00,0.00,VWS V14.01,2013-02-05 03:45:00,
2013-02-04 21:50:00,12.8,4.6,29.89,SW,222,6.0,9.0,69,0.00,,---,0.00,0.00,VWS V14.01,2013-02-05 03:50:00,
2013-02-04 21:55:00,12.7,5.1,29.88,SSW,198,4.0,10.0,71,0.00,,---,0.00,0.00,VWS V14.01,2013-02-05 03:55:00,
2013-02-04 22:00:00,12.5,5.5,29.88,SSE,168,2.0,11.0,73,0.00,,---,0.00,0.00,VWS V14.01,2013-02-05 04:00:00,
2013-02-04 22:10:00,12.2,6.1,29.87,SW,220,7.0,9.0,76,0.00,,---,0.00,0.00,VWS V14.01,2013-02-05 04:10:00,
2013-02-04 22:15:00,12.1,6.6,29.86,SSW,194,3.0,8.0,78,0.00,,---,0.00,0.00,VWS V14.01,2013-02-05 04:15:00,
2013-02-04 22:20:00,12.1,6.8,29.86,SSE,148,4.0,5.0,79,0.00,,---,0.00,0.00,VWS V14.01,2013-02-05 04:20:00,
2013-02-04 22:25:00,12.0,6.8,29.85,SSE,167,5.0,8.0,79,0.00,,---,0.00,0.00,VWS V14.01,2013-02-05 04:25:00,
2013-02-04 22:30:00,12.0,7.3,29.84,South,190,2.0,7.0,81,0.00,,---,0.00,0.00,VWS V14.01,2013-02-05 04:30:00,
2013-02-04 22:35:00,12.0,7.6,29.84,SE,146,9.0,9.0,82,0.00,,---,0.00,0.00,VWS V14.01,2013-02-05 04:35:00,
2013-02-04 22:45:00,12.1,8.2,29.84,SSE,159,2.0,6.0,84,0.00,,---,0.00,0.00,VWS V14.01,2013-02-05 04:45:00,
2013-02-04 22:50:00,12.1,8.2,29.83,SSE,148,4.0,6.0,84,0.00,,---,0.00,0.00,VWS V14.01,2013-02-05 04:50:00,
2013-02-04 22:55:00,12.2,8.6,29.83,South,172,3.0,6.0,85,0.00,,---,0.00,0.00,VWS V14.01,2013-02-05 04:55:00,
2013-02-04 23:00:00,12.3,8.7,29.82,SW,219,7.0,10.0,85,0.00,,---,0.00,0.00,VWS V14.01,2013-02-05 05:00:00,
2013-02-04 23:05:00,12.4,8.8,29.81,SSE,152,2.0,10.0,85,0.00,,---,0.00,0.00,VWS V14.01,2013-02-05 05:05:00,
2013-02-04 23:10:00,12.6,9.2,29.81,South,175,2.0,10.0,86,0.00,,---,0.00,0.00,VWS V14.01,2013-02-05 05:10:00,
2013-02-04 23:15:00,12.8,9.4,29.80,SSE,153,4.0,14.0,86,0.00,,---,0.00,0.00,VWS V14.01,2013-02-05 05:15:00,
2013-02-04 23:20:00,13.0,9.6,29.79,SSW,192,8.0,9.0,86,0.00,,---,0.00,0.00,VWS V14.01,2013-02-05 05:20:00,
2013-02-04 23:25:00,13.2,9.8,29.79,SSE,152,5.0,12.0,86,0.00,,---,0.00,0.00,VWS V14.01,2013-02-05 05:25:00,
2013-02-04 23:30:00,13.3,9.9,29.78,SSW,194,2.0,10.0,86,0.00,,---,0.00,0.00,VWS V14.01,2013-02-05 05:30:00,
2013-02-04 23:35:00,13.4,10.0,29.77,SSE,168,3.0,12.0,86,0.00,,---,0.00,0.00,VWS V14.01,2013-02-05 05:35:00,
2013-02-04 23:40:00,13.5,10.1,29.77,SSE,160,1.0,12.0,86,0.00,,---,0.00,0.00,VWS V14.01,2013-02-05 05:40:00,
2013-02-04 23:45:00,13.7,10.3,29.77,SE,144,4.0,10.0,86,0.00,,---,0.00,0.00,VWS V14.01,2013-02-05 05:45:00,
2013-02-04 23:50:00,13.8,10.6,29.77,South,187,5.0,11.0,87,0.00,,---,0.00,0.00,VWS V14.01,2013-02-05 05:50:00,
2013-02-04 23:55:00,14.0,10.9,29.77,SW,219,5.0,9.0,87,0.00,,---,0.00,0.00,VWS V14.01,2013-02-05 05:55:00,